createdAt,value
2019-03-25T00:00:54.630Z,79.62
2019-03-25T00:03:28.195Z,79.79
2019-03-25T00:06:01.637Z,80.08
2019-03-25T00:08:35.067Z,80.39
2019-03-25T00:11:08.580Z,80.50
2019-03-25T00:13:42.038Z,80.82
2019-03-25T00:16:15.449Z,81.24
2019-03-25T00:18:48.793Z,80.85
2019-03-25T00:21:24.167Z,80.65
2019-03-25T00:23:57.281Z,80.19
2019-03-25T00:26:30.663Z,79.76
2019-03-25T00:29:04.076Z,78.56
2019-03-25T00:31:37.502Z,79.06
2019-03-25T00:34:10.823Z,79.00
2019-03-25T00:36:44.330Z,78.28
2019-03-25T00:39:17.621Z,78.02
2019-03-25T00:41:50.979Z,77.71
2019-03-25T00:44:24.320Z,77.95
2019-03-25T00:46:57.694Z,78.10
2019-03-25T00:49:31.063Z,77.92
2019-03-25T00:52:04.521Z,78.09
2019-03-25T00:54:49.334Z,77.92
2019-03-25T00:57:13.035Z,78.15
2019-03-25T00:59:48.811Z,78.15
2019-03-25T01:02:21.468Z,78.55
2019-03-25T01:04:54.839Z,79.04
2019-03-25T01:07:28.269Z,78.48
2019-03-25T01:10:01.613Z,79.10
2019-03-25T01:12:34.949Z,78.78
2019-03-25T01:15:08.622Z,79.38
2019-03-25T01:17:41.986Z,79.85
2019-03-25T01:20:16.886Z,80.33
2019-03-25T01:22:50.368Z,80.48
2019-03-25T01:25:23.720Z,80.49
2019-03-25T01:27:57.075Z,80.44
2019-03-25T01:30:30.407Z,80.69
2019-03-25T01:33:03.766Z,81.00
2019-03-25T01:35:37.085Z,81.05
2019-03-25T01:38:10.447Z,80.04
2019-03-25T01:40:43.940Z,80.02
2019-03-25T01:43:17.290Z,79.54
2019-03-25T01:45:50.700Z,79.50
2019-03-25T01:48:24.032Z,79.57
2019-03-25T01:50:57.385Z,79.25
2019-03-25T01:53:30.824Z,78.88
2019-03-25T01:56:04.216Z,79.95
2019-03-25T01:58:37.566Z,78.33
2019-03-25T02:01:10.974Z,76.54
2019-03-25T02:03:44.395Z,76.58
2019-03-25T02:06:17.730Z,76.90
2019-03-25T02:08:51.145Z,77.61
2019-03-25T02:11:24.476Z,77.93
2019-03-25T02:13:57.835Z,78.09
2019-03-25T02:16:31.183Z,77.50
2019-03-25T02:19:04.609Z,78.08
2019-03-25T02:21:37.954Z,76.43
2019-03-25T02:24:11.481Z,75.66
2019-03-25T02:26:44.820Z,75.47
2019-03-25T02:29:18.256Z,75.67
2019-03-25T02:31:51.593Z,75.72
2019-03-25T02:34:24.957Z,76.41
2019-03-25T02:36:58.389Z,77.14
2019-03-25T02:39:31.776Z,77.20
2019-03-25T02:42:05.176Z,76.73
2019-03-25T02:44:38.544Z,77.16
2019-03-25T02:47:11.911Z,76.86
2019-03-25T02:49:48.077Z,77.21
2019-03-25T02:52:21.431Z,78.61
2019-03-25T02:54:54.767Z,79.00
2019-03-25T02:57:28.139Z,78.88
2019-03-25T03:00:01.586Z,79.73
2019-03-25T03:02:34.878Z,80.10
2019-03-25T03:05:08.276Z,79.96
2019-03-25T03:07:41.711Z,80.24
2019-03-25T03:10:15.798Z,80.22
2019-03-25T03:12:49.162Z,80.52
2019-03-25T03:15:22.532Z,80.76
2019-03-25T03:17:56.254Z,80.36
2019-03-25T03:20:29.666Z,80.36
2019-03-25T03:23:03.088Z,80.20
2019-03-25T03:25:36.417Z,80.15
2019-03-25T03:28:09.789Z,80.35
2019-03-25T03:30:43.201Z,81.25
2019-03-25T03:33:16.610Z,81.36
2019-03-25T03:35:50.026Z,82.77
2019-03-25T03:38:23.490Z,83.88
2019-03-25T03:40:56.891Z,84.45
2019-03-25T03:43:30.279Z,84.26
2019-03-25T03:46:03.846Z,83.82
2019-03-25T03:48:37.275Z,83.51
2019-03-25T03:51:10.685Z,82.76
2019-03-25T03:53:44.059Z,82.76
2019-03-25T03:56:17.790Z,82.77
2019-03-25T03:58:51.203Z,83.21
2019-03-25T04:01:24.618Z,82.78
2019-03-25T04:03:57.975Z,83.08
2019-03-25T04:06:31.317Z,82.67
2019-03-25T04:09:06.173Z,82.57
2019-03-25T04:11:39.525Z,82.75
2019-03-25T04:14:12.951Z,82.15
2019-03-25T04:16:46.278Z,82.12
2019-03-25T04:19:19.629Z,82.55
2019-03-25T04:21:52.972Z,82.54
2019-03-25T04:24:26.310Z,83.14
2019-03-25T04:26:59.664Z,82.54
2019-03-25T04:29:33.014Z,82.19
2019-03-25T04:32:06.466Z,82.29
2019-03-25T04:34:39.794Z,81.73
2019-03-25T04:37:13.130Z,81.54
2019-03-25T04:39:46.491Z,81.73
2019-03-25T04:42:19.874Z,82.34
2019-03-25T04:44:53.302Z,82.71
2019-03-25T04:47:26.624Z,82.06
2019-03-25T04:49:59.977Z,81.01
2019-03-25T04:52:33.327Z,81.31
2019-03-25T04:55:07.921Z,81.24
2019-03-25T04:57:41.341Z,80.99
2019-03-25T05:00:15.148Z,80.79
2019-03-25T05:02:48.560Z,80.64
2019-03-25T05:05:21.926Z,80.56
2019-03-25T05:07:55.376Z,80.62
2019-03-25T05:10:31.775Z,79.87
2019-03-25T05:13:05.654Z,80.28
2019-03-25T05:15:38.986Z,80.47
2019-03-25T05:18:12.401Z,80.36
2019-03-25T05:20:45.742Z,79.51
2019-03-25T05:23:19.071Z,79.37
2019-03-25T05:25:52.442Z,79.30
2019-03-25T05:28:25.793Z,79.01
2019-03-25T05:30:59.226Z,78.89
2019-03-25T05:33:32.560Z,79.41
2019-03-25T05:36:05.993Z,79.42
2019-03-25T05:38:39.397Z,79.47
2019-03-25T05:41:12.756Z,78.70
2019-03-25T05:43:46.084Z,78.19
2019-03-25T05:46:19.496Z,78.53
2019-03-25T05:48:52.899Z,78.59
2019-03-25T05:51:26.259Z,78.81
2019-03-25T05:53:59.596Z,78.35
2019-03-25T05:56:33.047Z,77.50
2019-03-25T05:59:06.451Z,77.16
2019-03-25T06:01:39.811Z,76.46
2019-03-25T06:04:13.229Z,77.10
2019-03-25T06:06:46.588Z,76.65
2019-03-25T06:09:19.918Z,77.03
2019-03-25T06:11:53.288Z,77.82
2019-03-25T06:14:26.709Z,76.98
2019-03-25T06:17:00.133Z,76.24
2019-03-25T06:19:33.557Z,75.86
2019-03-25T06:22:06.987Z,75.48
2019-03-25T06:24:40.345Z,75.45
2019-03-25T06:27:14.622Z,74.93
2019-03-25T06:29:48.057Z,74.98
2019-03-25T06:32:21.393Z,75.27
2019-03-25T06:34:54.858Z,75.04
2019-03-25T06:37:28.269Z,75.14
2019-03-25T06:40:01.616Z,75.24
2019-03-25T06:42:34.936Z,75.31
2019-03-25T06:45:08.742Z,74.15
2019-03-25T06:47:42.198Z,74.03
2019-03-25T06:50:15.642Z,73.40
2019-03-25T06:52:49.110Z,73.46
2019-03-25T06:55:22.535Z,73.35
2019-03-25T06:57:55.863Z,73.42
2019-03-25T07:00:30.236Z,73.42
2019-03-25T07:03:03.773Z,73.62
2019-03-25T07:05:37.401Z,72.84
2019-03-25T07:08:10.832Z,71.91
2019-03-25T07:10:44.269Z,64.89
2019-03-25T07:13:17.696Z,68.45
2019-03-25T07:15:51.126Z,68.50
2019-03-25T07:18:24.531Z,69.75
2019-03-25T07:20:57.881Z,68.53
2019-03-25T07:23:31.212Z,68.69
2019-03-25T07:26:04.741Z,66.70
2019-03-25T07:28:38.807Z,65.94
2019-03-25T07:31:12.281Z,65.10
2019-03-25T07:33:45.614Z,65.31
2019-03-25T07:36:19.269Z,64.21
2019-03-25T07:38:52.697Z,63.23
2019-03-25T07:41:26.052Z,62.67
2019-03-25T07:43:59.464Z,62.04
2019-03-25T07:46:32.798Z,62.00
2019-03-25T07:49:06.253Z,62.18
2019-03-25T07:51:39.661Z,62.03
2019-03-25T07:54:13.077Z,61.50
2019-03-25T07:56:46.520Z,61.75
2019-03-25T07:59:20.286Z,61.21
2019-03-25T08:01:53.783Z,61.05
2019-03-25T08:04:26.941Z,61.22
2019-03-25T08:07:00.291Z,60.47
2019-03-25T08:09:33.747Z,60.71
2019-03-25T08:12:07.140Z,60.94
2019-03-25T08:14:40.518Z,61.24
2019-03-25T08:17:13.990Z,61.10
2019-03-25T08:19:47.364Z,60.77
2019-03-25T08:22:20.789Z,60.95
2019-03-25T08:24:54.313Z,60.99
2019-03-25T08:27:27.770Z,61.16
2019-03-25T08:30:01.180Z,61.30
2019-03-25T08:32:34.618Z,61.19
2019-03-25T08:35:08.112Z,61.22
2019-03-25T08:37:41.598Z,61.24
2019-03-25T08:40:15.119Z,61.36
2019-03-25T08:42:48.512Z,61.25
2019-03-25T08:45:21.943Z,61.17
2019-03-25T08:47:55.341Z,61.35
2019-03-25T08:50:28.769Z,61.14
2019-03-25T08:53:02.246Z,61.44
2019-03-25T08:55:35.700Z,61.72
2019-03-25T08:58:12.247Z,62.46
2019-03-25T09:00:44.157Z,62.96
2019-03-25T09:03:17.487Z,63.65
2019-03-25T09:05:50.907Z,64.00
2019-03-25T09:08:24.225Z,64.14
2019-03-25T09:10:57.647Z,63.97
2019-03-25T09:13:30.959Z,64.39
2019-03-25T09:16:04.379Z,63.60
2019-03-25T09:18:37.709Z,63.70
2019-03-25T09:21:11.117Z,63.67
2019-03-25T09:23:44.491Z,63.12
2019-03-25T09:26:17.923Z,63.39
2019-03-25T09:28:51.344Z,63.04
2019-03-25T09:31:36.151Z,62.67
2019-03-25T09:33:59.944Z,62.93
2019-03-25T09:36:33.353Z,63.16
2019-03-25T09:39:07.590Z,63.00
2019-03-25T09:41:40.931Z,63.26
2019-03-25T09:44:14.265Z,62.92
2019-03-25T09:46:47.843Z,62.13
2019-03-25T09:49:21.188Z,61.39
2019-03-25T09:51:54.637Z,61.41
2019-03-25T09:54:28.049Z,62.40
2019-03-25T09:57:01.546Z,61.45
2019-03-25T09:59:34.938Z,60.43
2019-03-25T10:02:08.368Z,57.37
2019-03-25T10:04:41.804Z,56.31
2019-03-25T10:07:23.016Z,55.00
2019-03-25T10:09:56.422Z,54.05
2019-03-25T10:12:29.805Z,53.78
2019-03-25T10:15:03.277Z,53.79
2019-03-25T10:17:36.755Z,54.67
2019-03-25T10:20:11.033Z,54.25
2019-03-25T10:22:44.450Z,53.63
2019-03-25T10:25:17.775Z,52.81
2019-03-25T10:27:51.212Z,53.46
2019-03-25T10:30:24.704Z,52.71
2019-03-25T10:32:58.121Z,53.29
2019-03-25T10:35:31.599Z,52.34
2019-03-25T10:38:05.119Z,51.55
2019-03-25T10:40:38.525Z,49.31
2019-03-25T10:43:11.985Z,47.02
2019-03-25T10:45:45.396Z,46.10
2019-03-25T10:48:18.839Z,45.50
2019-03-25T10:50:52.245Z,43.55
2019-03-25T10:53:25.589Z,44.44
2019-03-25T10:55:58.913Z,43.41
2019-03-25T10:58:32.352Z,42.21
2019-03-25T11:01:06.244Z,39.66
2019-03-25T11:03:39.743Z,39.41
2019-03-25T11:06:13.187Z,38.36
2019-03-25T11:08:46.546Z,38.44
2019-03-25T11:11:19.955Z,38.27
2019-03-25T11:13:53.387Z,38.70
2019-03-25T11:16:26.793Z,38.82
2019-03-25T11:19:00.141Z,39.04
2019-03-25T11:21:33.562Z,39.24
2019-03-25T11:24:07.016Z,38.93
2019-03-25T11:26:40.348Z,39.37
2019-03-25T11:29:13.809Z,39.42
2019-03-25T11:31:47.156Z,39.74
2019-03-25T11:34:20.598Z,39.64
2019-03-25T11:36:54.035Z,40.02
2019-03-25T11:39:27.387Z,40.69
2019-03-25T11:42:00.800Z,41.19
2019-03-25T11:44:34.243Z,41.03
2019-03-25T11:47:07.636Z,41.00
2019-03-25T11:49:41.099Z,39.84
2019-03-25T11:52:14.755Z,38.62
2019-03-25T11:54:48.195Z,38.23
2019-03-25T11:57:21.563Z,38.00
2019-03-25T11:59:55.451Z,37.08
2019-03-25T12:02:28.816Z,36.65
2019-03-25T12:05:02.302Z,36.82
2019-03-25T12:07:35.834Z,37.59
2019-03-25T12:10:09.183Z,40.47
2019-03-25T12:12:42.544Z,44.66
2019-03-25T12:15:15.974Z,46.56
2019-03-25T12:17:49.444Z,47.25
2019-03-25T12:20:22.752Z,46.45
2019-03-25T12:22:56.171Z,46.15
2019-03-25T12:25:29.564Z,45.94
2019-03-25T12:28:03.045Z,46.83
2019-03-25T12:30:36.526Z,46.54
2019-03-25T12:33:09.887Z,47.24
2019-03-25T12:35:43.349Z,47.05
2019-03-25T12:38:16.762Z,46.94
2019-03-25T12:40:50.103Z,46.45
2019-03-25T12:43:23.536Z,50.31
2019-03-25T12:45:57.003Z,58.24
2019-03-25T12:48:30.417Z,59.25
2019-03-25T12:51:04.781Z,60.59
2019-03-25T12:53:38.210Z,61.15
2019-03-25T12:56:11.639Z,61.87
2019-03-25T12:58:45.063Z,63.30
2019-03-25T13:01:18.475Z,61.52
2019-03-25T13:03:51.907Z,60.06
2019-03-25T13:06:25.377Z,58.88
2019-03-25T13:09:00.161Z,56.25
2019-03-25T13:11:33.618Z,56.69
2019-03-25T13:14:07.050Z,54.19
2019-03-25T13:16:40.373Z,54.59
2019-03-25T13:19:13.808Z,54.74
2019-03-25T13:21:47.298Z,54.73
2019-03-25T13:24:20.722Z,54.46
2019-03-25T13:26:54.088Z,55.42
2019-03-25T13:29:27.458Z,58.32
2019-03-25T13:32:00.834Z,58.95
2019-03-25T13:34:34.198Z,60.17
2019-03-25T13:37:07.541Z,58.62
2019-03-25T13:39:40.964Z,57.27
2019-03-25T13:42:14.373Z,56.99
2019-03-25T13:44:47.817Z,56.50
2019-03-25T13:47:21.251Z,56.61
2019-03-25T13:49:54.769Z,57.12
2019-03-25T13:52:28.236Z,57.37
2019-03-25T13:55:01.638Z,58.22
2019-03-25T13:57:35.058Z,58.49
2019-03-25T14:00:09.369Z,57.96
2019-03-25T14:02:42.712Z,57.14
2019-03-25T14:05:16.212Z,55.30
2019-03-25T14:07:49.615Z,52.32
2019-03-25T14:10:23.058Z,51.12
2019-03-25T14:12:56.395Z,49.49
2019-03-25T14:15:29.834Z,49.46
2019-03-25T14:18:03.413Z,46.74
2019-03-25T14:20:36.908Z,45.06
2019-03-25T14:23:10.242Z,44.88
2019-03-25T14:25:43.601Z,44.75
2019-03-25T14:28:17.049Z,45.01
2019-03-25T14:30:50.479Z,45.13
2019-03-25T14:33:23.983Z,45.49
2019-03-25T14:35:57.388Z,45.77
2019-03-25T14:38:30.754Z,50.16
2019-03-25T14:41:04.210Z,48.09
2019-03-25T14:43:37.557Z,48.47
2019-03-25T14:46:10.994Z,54.74
2019-03-25T14:48:44.419Z,65.52
2019-03-25T14:51:17.962Z,71.90
2019-03-25T14:53:51.434Z,69.97
2019-03-25T14:56:24.839Z,70.63
2019-03-25T14:58:58.182Z,69.80
2019-03-25T15:01:31.600Z,69.47
2019-03-25T15:04:05.030Z,70.28
2019-03-25T15:06:38.466Z,69.62
2019-03-25T15:09:11.812Z,69.51
2019-03-25T15:11:45.212Z,68.88
2019-03-25T15:14:18.699Z,66.70
2019-03-25T15:16:52.052Z,68.27
2019-03-25T15:19:25.425Z,67.14
2019-03-25T15:21:58.765Z,65.66
2019-03-25T15:24:32.184Z,65.23
2019-03-25T15:27:05.522Z,66.19
2019-03-25T15:29:38.942Z,64.35
2019-03-25T15:32:12.352Z,61.46
2019-03-25T15:34:45.731Z,59.67
2019-03-25T15:37:19.099Z,58.80
2019-03-25T15:39:52.585Z,58.15
2019-03-25T15:42:26.074Z,57.93
2019-03-25T15:44:59.459Z,58.36
2019-03-25T15:47:32.951Z,58.51
2019-03-25T15:50:08.953Z,58.40
2019-03-25T15:52:42.493Z,56.83
2019-03-25T15:55:16.024Z,57.74
2019-03-25T15:57:49.445Z,58.52
2019-03-25T16:00:23.259Z,57.10
2019-03-25T16:02:56.718Z,55.77
2019-03-25T16:05:30.064Z,54.69
2019-03-25T16:08:03.561Z,55.15
2019-03-25T16:10:36.983Z,55.07
2019-03-25T16:13:10.558Z,53.33
2019-03-25T16:15:44.095Z,55.81
2019-03-25T16:18:38.143Z,54.91
2019-03-25T16:21:11.855Z,55.22
2019-03-25T16:23:45.328Z,55.94
2019-03-25T16:26:18.676Z,58.07
2019-03-25T16:28:52.101Z,58.69
2019-03-25T16:31:25.452Z,59.16
2019-03-25T16:33:58.807Z,59.08
2019-03-25T16:36:32.189Z,59.61
2019-03-25T16:39:07.544Z,59.63
2019-03-25T16:41:40.972Z,60.41
2019-03-25T16:44:14.316Z,60.45
2019-03-25T16:46:47.743Z,60.60
2019-03-25T16:49:21.218Z,60.67
2019-03-25T16:51:54.676Z,60.78
2019-03-25T16:54:28.025Z,61.17
2019-03-25T16:57:01.395Z,60.89
2019-03-25T16:59:34.721Z,60.20
2019-03-25T17:02:08.173Z,59.54
2019-03-25T17:04:41.514Z,59.86
2019-03-25T17:07:14.956Z,59.95
2019-03-25T17:09:48.291Z,60.39
2019-03-25T17:12:21.745Z,60.49
2019-03-25T17:14:55.216Z,60.84
2019-03-25T17:17:28.660Z,61.13
2019-03-25T17:20:02.071Z,61.51
2019-03-25T17:22:35.744Z,61.63
2019-03-25T17:25:09.235Z,61.66
2019-03-25T17:27:42.705Z,61.49
2019-03-25T17:30:17.934Z,62.04
2019-03-25T17:32:51.345Z,61.07
2019-03-25T17:35:24.682Z,61.79
2019-03-25T17:37:58.120Z,61.54
2019-03-25T17:40:31.570Z,62.04
2019-03-25T17:43:05.120Z,62.08
2019-03-25T17:45:48.003Z,62.01
2019-03-25T17:48:21.379Z,63.66
2019-03-25T17:50:54.734Z,68.04
2019-03-25T17:53:29.061Z,72.99
2019-03-25T17:56:02.428Z,76.93
2019-03-25T17:58:35.790Z,77.81
2019-03-25T18:01:10.880Z,79.24
2019-03-25T18:03:44.333Z,80.24
2019-03-25T18:06:17.656Z,80.56
2019-03-25T18:08:51.012Z,80.14
2019-03-25T18:11:24.539Z,80.51
2019-03-25T18:13:57.899Z,80.40
2019-03-25T18:16:31.289Z,80.12
2019-03-25T18:19:05.210Z,79.65
2019-03-25T18:21:38.579Z,79.73
2019-03-25T18:24:12.000Z,79.40
2019-03-25T18:26:45.428Z,80.16
2019-03-25T18:29:18.909Z,79.38
2019-03-25T18:31:52.345Z,80.01
2019-03-25T18:34:29.098Z,80.40
2019-03-25T18:37:02.642Z,81.88
2019-03-25T18:39:35.994Z,81.70
2019-03-25T18:42:09.480Z,82.46
2019-03-25T18:44:42.836Z,84.15
2019-03-25T18:47:16.264Z,82.82
2019-03-25T18:49:49.705Z,85.04
2019-03-25T18:52:23.134Z,85.80
2019-03-25T18:54:56.595Z,85.81
2019-03-25T18:57:30.103Z,86.83
2019-03-25T19:00:05.518Z,87.49
2019-03-25T19:02:38.947Z,88.50
2019-03-25T19:05:12.531Z,86.45
2019-03-25T19:07:46.209Z,87.83
2019-03-25T19:10:27.393Z,88.21
2019-03-25T19:13:00.806Z,89.67
2019-03-25T19:15:34.426Z,89.12
2019-03-25T19:18:07.859Z,88.24
2019-03-25T19:20:41.276Z,87.38
2019-03-25T19:23:14.799Z,88.74
2019-03-25T19:25:48.251Z,87.81
2019-03-25T19:28:21.725Z,88.50
2019-03-25T19:30:55.236Z,88.52
2019-03-25T19:33:28.687Z,89.31
2019-03-25T19:36:02.258Z,89.81
2019-03-25T19:38:35.705Z,89.54
2019-03-25T19:41:09.198Z,88.47
2019-03-25T19:43:42.610Z,89.72
2019-03-25T19:46:16.068Z,89.51
2019-03-25T19:48:49.521Z,89.75
2019-03-25T19:51:23.092Z,88.64
2019-03-25T19:53:56.436Z,89.14
2019-03-25T19:56:29.924Z,88.63
2019-03-25T19:59:03.335Z,88.70
2019-03-25T20:01:36.866Z,89.27
2019-03-25T20:04:10.222Z,89.85
2019-03-25T20:06:43.585Z,89.36
2019-03-25T20:09:17.043Z,88.29
2019-03-25T20:11:50.456Z,88.87
2019-03-25T20:14:23.806Z,89.59
2019-03-25T20:16:57.231Z,89.81
2019-03-25T20:19:30.793Z,89.36
2019-03-25T20:22:04.386Z,88.63
2019-03-25T20:24:38.421Z,89.34
2019-03-25T20:27:11.862Z,89.14
2019-03-25T20:29:45.267Z,90.39
2019-03-25T20:32:30.966Z,90.53
2019-03-25T20:34:53.908Z,91.03
2019-03-25T20:37:27.378Z,91.52
2019-03-25T20:40:00.867Z,91.52
2019-03-25T20:42:34.353Z,91.75
2019-03-25T20:45:09.266Z,91.82
2019-03-25T20:47:42.837Z,91.82
2019-03-25T20:50:16.352Z,91.90
2019-03-25T20:52:49.827Z,91.95
2019-03-25T20:55:24.262Z,92.15
2019-03-25T20:57:57.904Z,92.52
2019-03-25T21:00:48.758Z,91.86
2019-03-25T21:03:22.379Z,90.80
2019-03-25T21:05:55.839Z,89.98
2019-03-25T21:08:29.318Z,90.58
2019-03-25T21:11:02.715Z,89.99
2019-03-25T21:13:36.119Z,88.87
2019-03-25T21:16:09.654Z,88.96
2019-03-25T21:18:43.098Z,89.29
2019-03-25T21:21:16.574Z,89.50
2019-03-25T21:23:49.994Z,89.06
2019-03-25T21:26:23.340Z,89.15
2019-03-25T21:28:56.851Z,89.00
2019-03-25T21:31:30.332Z,88.92
2019-03-25T21:34:03.782Z,88.05
2019-03-25T21:36:37.272Z,88.56
2019-03-25T21:39:10.694Z,88.03
2019-03-25T21:41:44.250Z,88.73
2019-03-25T21:44:17.749Z,88.41
2019-03-25T21:46:51.132Z,88.76
2019-03-25T21:49:24.541Z,88.33
2019-03-25T21:51:58.118Z,89.10
2019-03-25T21:54:31.596Z,89.21
2019-03-25T21:57:05.075Z,89.31
2019-03-25T21:59:38.537Z,88.07
2019-03-25T22:02:12.079Z,88.87
2019-03-25T22:04:45.409Z,88.16
2019-03-25T22:07:18.900Z,87.83
2019-03-25T22:09:52.306Z,87.34
2019-03-25T22:12:25.732Z,87.48
2019-03-25T22:14:59.131Z,87.76
2019-03-25T22:17:32.590Z,88.44
2019-03-25T22:20:08.503Z,88.04
2019-03-25T22:22:41.964Z,87.79
2019-03-25T22:25:15.431Z,87.55
2019-03-25T22:27:48.786Z,88.08
2019-03-25T22:30:22.202Z,87.75
2019-03-25T22:32:55.737Z,88.05
2019-03-25T22:35:29.104Z,88.16
2019-03-25T22:38:02.550Z,88.04
2019-03-25T22:40:35.950Z,89.17
2019-03-25T22:43:09.483Z,88.60
2019-03-25T22:45:42.902Z,88.83
2019-03-25T22:48:16.356Z,89.20
2019-03-25T22:50:49.771Z,89.32
2019-03-25T22:53:23.211Z,89.49
2019-03-25T22:55:56.546Z,89.65
2019-03-25T22:58:29.931Z,89.29
2019-03-25T23:01:03.588Z,89.52
2019-03-25T23:03:39.375Z,89.57
2019-03-25T23:06:12.143Z,90.05
2019-03-25T23:08:45.612Z,90.33
2019-03-25T23:11:19.099Z,90.41
2019-03-25T23:13:52.539Z,90.50
2019-03-25T23:16:25.888Z,90.94
2019-03-25T23:18:59.346Z,90.58
2019-03-25T23:21:32.689Z,90.95
2019-03-25T23:24:06.140Z,91.10
2019-03-25T23:26:39.492Z,91.11
2019-03-25T23:29:12.878Z,91.47
2019-03-25T23:31:46.231Z,91.07
2019-03-25T23:34:19.631Z,90.82
2019-03-25T23:36:52.955Z,90.69
2019-03-25T23:39:26.411Z,90.40
2019-03-25T23:41:59.759Z,90.35
2019-03-25T23:44:33.146Z,90.39
2019-03-25T23:47:06.555Z,90.52
2019-03-25T23:49:39.903Z,90.25
2019-03-25T23:52:13.313Z,90.42
2019-03-25T23:54:46.668Z,90.17
2019-03-25T23:57:20.084Z,89.90
2019-03-25T23:59:53.470Z,89.83
